createdAt,value
2023-04-18T00:02:00.326Z,20.13
2023-04-18T00:04:28.660Z,22.07
2023-04-18T00:06:56.888Z,17.37
2023-04-18T00:09:25.585Z,16.87
2023-04-18T00:11:55.150Z,17.10
2023-04-18T00:14:23.286Z,20.30
2023-04-18T00:16:54.166Z,17.60
2023-04-18T00:19:22.389Z,16.70
2023-04-18T00:21:53.345Z,16.37
2023-04-18T00:24:21.483Z,18.20
2023-04-18T00:26:49.864Z,15.27
2023-04-18T00:29:19.318Z,20.70
2023-04-18T00:31:47.479Z,18.73
2023-04-18T00:34:15.824Z,15.43
2023-04-18T00:36:44.125Z,14.70
2023-04-18T00:39:12.335Z,19.07
2023-04-18T00:41:40.568Z,20.37
2023-04-18T00:44:08.702Z,18.83
2023-04-18T00:46:38.228Z,17.90
2023-04-18T00:49:06.900Z,17.60
2023-04-18T00:51:36.329Z,19.17
2023-04-18T00:54:07.233Z,15.90
2023-04-18T00:56:36.314Z,18.03
2023-04-18T00:59:04.548Z,17.40
2023-04-18T01:01:33.654Z,20.47
2023-04-18T01:04:03.473Z,16.43
2023-04-18T01:06:32.010Z,17.43
2023-04-18T01:09:00.387Z,15.03
2023-04-18T01:11:28.713Z,17.33
2023-04-18T01:14:01.419Z,16.63
2023-04-18T01:16:32.748Z,17.47
2023-04-18T01:19:03.737Z,20.07
2023-04-18T01:21:33.906Z,19.47
2023-04-18T01:24:08.686Z,19.53
2023-04-18T01:26:36.900Z,20.90
2023-04-18T01:29:06.711Z,19.87
2023-04-18T01:31:35.983Z,18.50
2023-04-18T01:34:04.782Z,19.00
2023-04-18T01:36:33.603Z,16.77
2023-04-18T01:39:01.880Z,14.73
2023-04-18T01:41:32.875Z,16.63
2023-04-18T01:44:01.352Z,17.00
2023-04-18T01:46:29.723Z,18.73
2023-04-18T01:48:58.754Z,18.20
2023-04-18T01:51:28.251Z,19.13
2023-04-18T01:53:56.388Z,15.20
2023-04-18T01:56:25.965Z,17.80
2023-04-18T01:58:55.515Z,18.03
2023-04-18T02:01:24.297Z,15.37
2023-04-18T02:03:53.048Z,13.80
2023-04-18T02:06:21.539Z,13.03
2023-04-18T02:08:49.676Z,18.43
2023-04-18T02:11:17.830Z,13.90
2023-04-18T02:13:46.609Z,16.00
2023-04-18T02:16:16.364Z,14.60
2023-04-18T02:18:45.418Z,14.50
2023-04-18T02:21:15.193Z,13.17
2023-04-18T02:23:43.335Z,13.90
2023-04-18T02:26:11.463Z,14.87
2023-04-18T02:28:39.789Z,14.23
2023-04-18T02:31:14.363Z,17.83
2023-04-18T02:33:44.799Z,15.33
2023-04-18T02:36:13.604Z,17.53
2023-04-18T02:38:44.903Z,16.97
2023-04-18T02:41:17.320Z,15.63
2023-04-18T02:43:45.561Z,15.03
2023-04-18T02:46:15.863Z,16.47
2023-04-18T02:48:47.813Z,17.40
2023-04-18T02:51:17.569Z,18.60
2023-04-18T02:53:45.684Z,16.23
2023-04-18T02:56:17.294Z,13.43
2023-04-18T02:59:05.590Z,15.13
2023-04-18T03:01:47.200Z,15.50
2023-04-18T03:04:20.205Z,15.93
2023-04-18T03:07:00.691Z,16.10
2023-04-18T03:09:31.602Z,15.90
2023-04-18T03:12:05.991Z,16.20
2023-04-18T03:14:36.068Z,14.90
2023-04-18T03:17:04.299Z,17.20
2023-04-18T03:19:39.938Z,12.57
2023-04-18T03:22:11.387Z,14.07
2023-04-18T03:24:46.843Z,10.30
2023-04-18T03:27:16.130Z,13.53
2023-04-18T03:29:46.280Z,11.97
2023-04-18T03:32:15.325Z,12.27
2023-04-18T03:34:44.956Z,13.27
2023-04-18T03:37:13.215Z,11.33
2023-04-18T03:39:47.210Z,12.97
2023-04-18T03:42:15.505Z,12.83
2023-04-18T03:44:44.792Z,13.17
2023-04-18T03:47:14.599Z,14.10
2023-04-18T03:49:46.957Z,16.13
2023-04-18T03:52:16.019Z,15.13
2023-04-18T03:54:44.353Z,15.23
2023-04-18T03:57:13.380Z,13.10
2023-04-18T03:59:42.663Z,15.00
2023-04-18T04:02:10.837Z,13.43
2023-04-18T04:04:39.127Z,12.13
2023-04-18T04:07:08.730Z,15.73
2023-04-18T04:09:37.895Z,13.70
2023-04-18T04:12:07.867Z,19.00
2023-04-18T04:14:36.416Z,10.13
2023-04-18T04:17:05.515Z,12.67
2023-04-18T04:19:34.508Z,12.63
2023-04-18T04:22:11.854Z,11.70
2023-04-18T04:24:40.485Z,16.27
2023-04-18T04:27:10.470Z,13.90
2023-04-18T04:29:39.642Z,11.13
2023-04-18T04:32:09.036Z,14.70
2023-04-18T04:34:41.354Z,38.23
2023-04-18T04:37:13.998Z,16.77
2023-04-18T04:39:52.986Z,17.73
2023-04-18T04:42:41.018Z,18.93
2023-04-18T04:45:15.351Z,13.87
2023-04-18T04:47:43.545Z,15.17
2023-04-18T04:50:15.414Z,15.67
2023-04-18T04:52:44.919Z,17.43
2023-04-18T04:55:13.341Z,17.70
2023-04-18T04:57:44.768Z,16.37
2023-04-18T05:00:30.558Z,17.23
2023-04-18T05:02:58.834Z,14.90
2023-04-18T05:05:28.500Z,17.80
2023-04-18T05:07:58.024Z,17.37
2023-04-18T05:10:26.258Z,16.07
2023-04-18T05:12:54.380Z,17.23
2023-04-18T05:15:22.534Z,16.37
2023-04-18T05:17:50.756Z,16.47
2023-04-18T05:20:19.029Z,18.37
2023-04-18T05:22:47.190Z,14.17
2023-04-18T05:25:16.722Z,17.17
2023-04-18T05:27:46.288Z,17.93
2023-04-18T05:30:14.951Z,17.77
2023-04-18T05:32:43.239Z,19.37
2023-04-18T05:35:11.459Z,18.23
2023-04-18T05:37:39.618Z,18.23
2023-04-18T05:40:09.636Z,18.63
2023-04-18T05:42:39.409Z,18.23
2023-04-18T05:45:08.651Z,14.83
2023-04-18T05:47:36.874Z,19.17
2023-04-18T05:50:05.872Z,17.07
2023-04-18T05:52:34.120Z,19.53
2023-04-18T05:55:02.288Z,15.27
2023-04-18T05:57:30.453Z,15.50
2023-04-18T05:59:59.933Z,17.40
2023-04-18T06:02:28.234Z,15.80
2023-04-18T06:04:56.939Z,15.53
2023-04-18T06:07:26.054Z,19.30
2023-04-18T06:09:54.448Z,18.23
2023-04-18T06:12:22.610Z,17.80
2023-04-18T06:14:51.219Z,18.10
2023-04-18T06:17:21.418Z,19.50
2023-04-18T06:19:49.582Z,16.93
2023-04-18T06:22:17.707Z,16.60
2023-04-18T06:24:45.952Z,19.00
2023-04-18T06:27:27.837Z,18.37
2023-04-18T06:29:59.151Z,18.73
2023-04-18T06:32:28.890Z,17.27
2023-04-18T06:34:57.042Z,17.80
2023-04-18T06:37:25.366Z,18.93
2023-04-18T06:39:53.518Z,19.77
2023-04-18T06:42:22.704Z,20.60
2023-04-18T06:44:51.132Z,22.03
2023-04-18T06:47:19.353Z,18.77
2023-04-18T06:49:48.959Z,19.80
2023-04-18T06:52:17.161Z,16.97
2023-04-18T06:54:45.359Z,17.07
2023-04-18T06:57:13.697Z,19.30
2023-04-18T06:59:42.278Z,23.10
2023-04-18T07:02:10.563Z,18.93
2023-04-18T07:04:39.187Z,17.63
2023-04-18T07:07:08.849Z,20.10
2023-04-18T07:09:37.391Z,20.40
2023-04-18T07:12:05.937Z,21.73
2023-04-18T07:14:34.323Z,19.93
2023-04-18T07:17:02.732Z,20.47
2023-04-18T07:19:30.911Z,21.13
2023-04-18T07:21:59.147Z,22.70
2023-04-18T07:24:28.658Z,17.77
2023-04-18T07:26:56.917Z,23.70
2023-04-18T07:29:25.099Z,19.13
2023-04-18T07:31:53.296Z,21.10
2023-04-18T07:34:22.105Z,28.83
2023-04-18T07:36:50.588Z,24.93
2023-04-18T07:39:18.724Z,29.73
2023-04-18T07:41:48.346Z,34.17
2023-04-18T07:44:16.540Z,25.10
2023-04-18T07:46:44.797Z,16.90
2023-04-18T07:49:13.233Z,18.17
2023-04-18T07:51:41.726Z,16.13
2023-04-18T07:54:11.121Z,16.40
2023-04-18T07:56:39.299Z,17.43
2023-04-18T07:59:08.817Z,19.23
2023-04-18T08:01:36.930Z,14.50
2023-04-18T08:04:05.415Z,15.93
2023-04-18T08:06:34.822Z,13.67
2023-04-18T08:09:05.634Z,14.00
2023-04-18T08:11:34.475Z,14.50
2023-04-18T08:14:02.965Z,20.67
2023-04-18T08:16:32.553Z,13.47
2023-04-18T08:19:00.776Z,17.10
2023-04-18T08:21:28.906Z,13.97
2023-04-18T08:23:57.021Z,18.53
2023-04-18T08:26:25.207Z,14.37
2023-04-18T08:28:53.350Z,13.20
2023-04-18T08:31:22.002Z,15.37
2023-04-18T08:33:51.562Z,15.13
2023-04-18T08:36:19.708Z,17.40
2023-04-18T08:38:47.840Z,14.00
2023-04-18T08:41:21.702Z,15.40
2023-04-18T08:43:49.980Z,16.60
2023-04-18T08:46:19.271Z,17.43
2023-04-18T08:48:51.348Z,13.77
2023-04-18T08:51:19.630Z,16.20
2023-04-18T08:53:48.347Z,16.90
2023-04-18T08:56:16.527Z,12.80
2023-04-18T08:58:45.059Z,12.93
2023-04-18T09:01:13.570Z,14.50
2023-04-18T09:03:43.190Z,14.97
2023-04-18T09:06:16.144Z,13.90
2023-04-18T09:08:45.226Z,13.57
2023-04-18T09:11:25.878Z,16.47
2023-04-18T09:13:56.300Z,12.93
2023-04-18T09:16:24.972Z,14.03
2023-04-18T09:19:21.663Z,14.63
2023-04-18T09:21:59.284Z,13.23
2023-04-18T09:24:28.682Z,13.00
2023-04-18T09:26:58.703Z,15.10
2023-04-18T09:29:47.270Z,15.27
2023-04-18T09:32:23.992Z,13.30
2023-04-18T09:34:54.369Z,14.57
2023-04-18T09:37:23.838Z,14.57
2023-04-18T09:39:52.059Z,15.13
2023-04-18T09:42:20.998Z,18.00
2023-04-18T09:45:00.501Z,11.57
2023-04-18T09:47:28.926Z,14.83
2023-04-18T09:49:57.219Z,12.80
2023-04-18T09:52:26.933Z,15.87
2023-04-18T09:55:01.013Z,12.80
2023-04-18T09:57:30.747Z,23.73
2023-04-18T10:00:14.069Z,13.33
2023-04-18T10:02:49.442Z,13.33
2023-04-18T10:05:20.921Z,11.30
2023-04-18T10:07:51.648Z,12.53
2023-04-18T10:10:20.193Z,13.60
2023-04-18T10:12:50.726Z,15.27
2023-04-18T10:15:22.118Z,12.40
2023-04-18T10:18:04.232Z,17.20
2023-04-18T10:20:35.763Z,11.17
2023-04-18T10:23:39.369Z,12.97
2023-04-18T10:26:08.434Z,11.40
2023-04-18T10:28:54.237Z,16.30
2023-04-18T10:31:23.272Z,13.47
2023-04-18T10:34:04.001Z,19.40
2023-04-18T10:36:33.837Z,12.47
2023-04-18T10:39:21.159Z,12.50
2023-04-18T10:41:51.057Z,12.23
2023-04-18T10:44:23.857Z,14.60
2023-04-18T10:47:32.495Z,13.63
2023-04-18T10:50:06.197Z,11.83
2023-04-18T10:52:35.120Z,15.03
2023-04-18T10:55:14.709Z,17.53
2023-04-18T10:57:44.841Z,18.50
2023-04-18T11:00:15.586Z,15.87
2023-04-18T11:02:51.062Z,13.00
2023-04-18T11:05:25.459Z,14.53
2023-04-18T11:07:54.388Z,14.10
2023-04-18T11:10:26.686Z,13.93
2023-04-18T11:12:56.182Z,14.40
2023-04-18T11:15:27.096Z,13.50
2023-04-18T11:17:58.043Z,14.33
2023-04-18T11:20:26.572Z,16.90
2023-04-18T11:22:56.456Z,12.20
2023-04-18T11:25:27.876Z,12.00
2023-04-18T11:27:56.532Z,16.47
2023-04-18T11:30:24.810Z,15.67
2023-04-18T11:32:54.131Z,12.70
2023-04-18T11:35:22.672Z,14.63
2023-04-18T11:37:51.262Z,13.07
2023-04-18T11:40:19.457Z,15.70
2023-04-18T11:42:48.958Z,12.43
2023-04-18T11:45:17.087Z,15.80
2023-04-18T11:47:46.860Z,13.63
2023-04-18T11:50:15.224Z,12.90
2023-04-18T11:52:43.519Z,13.70
2023-04-18T11:55:14.433Z,15.40
2023-04-18T11:57:42.791Z,11.93
2023-04-18T12:00:13.796Z,14.20
2023-04-18T12:02:44.188Z,15.53
2023-04-18T12:05:15.057Z,14.10
2023-04-18T12:07:45.815Z,12.37
2023-04-18T12:10:26.209Z,14.80
2023-04-18T12:12:55.754Z,13.13
2023-04-18T12:15:28.064Z,16.30
2023-04-18T12:18:00.560Z,15.17
2023-04-18T12:20:36.402Z,13.20
2023-04-18T12:23:05.530Z,14.13
2023-04-18T12:25:34.779Z,13.07
2023-04-18T12:28:04.552Z,19.93
2023-04-18T12:30:37.395Z,13.33
2023-04-18T12:33:06.635Z,13.40
2023-04-18T12:35:34.897Z,11.70
2023-04-18T12:38:03.951Z,11.53
2023-04-18T12:40:32.214Z,12.43
2023-04-18T12:43:02.937Z,12.33
2023-04-18T12:45:31.857Z,12.47
2023-04-18T12:48:01.442Z,12.73
2023-04-18T12:50:29.728Z,12.33
2023-04-18T12:53:00.723Z,12.70
2023-04-18T12:55:29.518Z,12.03
2023-04-18T12:57:58.104Z,12.63
2023-04-18T13:00:28.745Z,13.67
2023-04-18T13:02:57.215Z,19.27
2023-04-18T13:05:31.619Z,10.83
2023-04-18T13:10:32.226Z,11.90
2023-04-18T13:13:00.490Z,13.00
2023-04-18T13:15:28.611Z,13.50
2023-04-18T13:17:57.288Z,12.70
2023-04-18T13:20:27.007Z,11.83
2023-04-18T13:22:55.309Z,12.87
2023-04-18T13:25:23.836Z,12.90
2023-04-18T13:27:52.000Z,15.50
2023-04-18T13:30:20.181Z,11.40
2023-04-18T13:32:48.353Z,12.33
2023-04-18T13:35:16.516Z,11.67
2023-04-18T13:37:46.291Z,12.00
2023-04-18T13:40:15.078Z,13.43
2023-04-18T13:42:44.098Z,13.80
2023-04-18T13:45:12.616Z,16.20
2023-04-18T13:47:40.821Z,11.10
2023-04-18T13:50:10.272Z,11.50
2023-04-18T13:52:38.533Z,14.00
2023-04-18T13:55:10.483Z,11.57
2023-04-18T13:57:38.639Z,11.10
2023-04-18T14:00:09.205Z,13.30
2023-04-18T14:02:43.079Z,16.80
2023-04-18T14:05:11.518Z,10.33
2023-04-18T14:07:39.668Z,11.23
2023-04-18T14:10:10.031Z,10.30
2023-04-18T14:12:38.287Z,11.90
2023-04-18T14:15:07.477Z,10.33
2023-04-18T14:17:35.738Z,10.03
2023-04-18T14:20:04.866Z,10.30
2023-04-18T14:22:32.984Z,9.57
2023-04-18T14:25:01.099Z,10.60
2023-04-18T14:27:30.677Z,10.50
2023-04-18T14:29:58.794Z,10.70
2023-04-18T14:32:27.428Z,14.07
2023-04-18T14:34:55.717Z,10.00
2023-04-18T14:37:24.164Z,12.60
2023-04-18T14:39:52.328Z,12.43
2023-04-18T14:42:20.486Z,9.30
2023-04-18T14:44:49.960Z,10.47
2023-04-18T14:47:18.101Z,9.90
2023-04-18T14:49:46.243Z,8.00
2023-04-18T14:52:14.358Z,8.93
2023-04-18T14:54:43.920Z,9.73
2023-04-18T14:57:13.161Z,8.57
2023-04-18T14:59:41.380Z,8.37
2023-04-18T15:02:12.219Z,7.97
2023-04-18T15:04:40.579Z,8.53
2023-04-18T15:07:08.807Z,7.67
2023-04-18T15:09:37.739Z,7.90
2023-04-18T15:12:07.147Z,7.03
2023-04-18T15:14:35.790Z,7.33
2023-04-18T15:17:04.549Z,6.77
2023-04-18T15:19:34.463Z,8.00
2023-04-18T15:22:03.020Z,6.40
2023-04-18T15:24:31.399Z,9.57
2023-04-18T15:26:59.596Z,7.03
2023-04-18T15:29:27.775Z,6.70
2023-04-18T15:31:56.313Z,6.27
2023-04-18T15:34:24.747Z,8.87
2023-04-18T15:36:54.194Z,6.43
2023-04-18T15:39:23.536Z,6.60
2023-04-18T15:41:54.398Z,6.13
2023-04-18T15:44:22.683Z,7.20
2023-04-18T15:46:51.005Z,6.20
2023-04-18T15:49:19.156Z,8.37
2023-04-18T15:51:47.312Z,6.60
2023-04-18T15:54:16.934Z,7.00
2023-04-18T15:56:45.340Z,7.10
2023-04-18T15:59:13.687Z,7.47
2023-04-18T16:01:44.456Z,8.00
2023-04-18T16:04:14.321Z,6.53
2023-04-18T16:06:43.179Z,6.40
2023-04-18T16:09:11.350Z,6.20
2023-04-18T16:11:40.869Z,6.27
2023-04-18T16:14:09.016Z,6.30
2023-04-18T16:16:37.274Z,6.20
2023-04-18T16:19:05.667Z,6.80
2023-04-18T16:21:33.935Z,4.70
2023-04-18T16:24:02.369Z,5.87
2023-04-18T16:26:30.783Z,7.03
2023-04-18T16:29:00.276Z,5.57
2023-04-18T16:31:28.510Z,7.33
2023-04-18T16:33:56.749Z,5.17
2023-04-18T16:36:25.001Z,4.47
2023-04-18T16:38:53.180Z,5.70
2023-04-18T16:41:21.291Z,4.40
2023-04-18T16:43:49.597Z,4.10
2023-04-18T16:46:19.145Z,3.97
2023-04-18T16:48:48.617Z,4.10
2023-04-18T16:51:17.729Z,4.00
2023-04-18T16:53:46.717Z,4.43
2023-04-18T16:56:14.921Z,3.60
2023-04-18T16:58:43.034Z,6.23
2023-04-18T17:01:11.308Z,4.03
2023-04-18T17:03:42.397Z,5.70
2023-04-18T17:06:10.672Z,6.47
2023-04-18T17:08:38.977Z,3.83
2023-04-18T17:11:07.552Z,5.83
2023-04-18T17:13:36.267Z,6.60
2023-04-18T17:16:04.780Z,9.10
2023-04-18T17:18:33.392Z,3.70
2023-04-18T17:21:03.314Z,5.77
2023-04-18T17:23:32.899Z,4.70
2023-04-18T17:26:01.366Z,5.07
2023-04-18T17:28:29.579Z,4.33
2023-04-18T17:30:58.516Z,4.97
2023-04-18T17:33:26.735Z,6.43
2023-04-18T17:35:54.928Z,6.43
2023-04-18T17:38:24.474Z,6.00
2023-04-18T17:41:00.013Z,7.53
2023-04-18T17:43:28.774Z,6.83
2023-04-18T17:46:03.584Z,7.93
2023-04-18T17:48:31.938Z,5.67
2023-04-18T17:51:00.171Z,5.10
2023-04-18T17:53:31.548Z,6.40
2023-04-18T17:56:00.856Z,5.63
2023-04-18T17:58:29.205Z,5.13
2023-04-18T18:00:57.644Z,5.80
2023-04-18T18:03:26.161Z,4.87
2023-04-18T18:05:55.180Z,5.43
2023-04-18T18:08:24.262Z,6.53
2023-04-18T18:10:53.804Z,9.23
2023-04-18T18:13:21.956Z,5.57
2023-04-18T18:15:50.126Z,5.63
2023-04-18T18:18:29.722Z,8.10
2023-04-18T18:20:58.228Z,5.53
2023-04-18T18:23:26.453Z,6.90
2023-04-18T18:25:55.903Z,12.80
2023-04-18T18:28:24.251Z,4.90
2023-04-18T18:30:52.467Z,5.53
2023-04-18T18:33:21.133Z,5.90
2023-04-18T18:35:49.406Z,6.27
2023-04-18T18:38:17.743Z,8.90
2023-04-18T18:40:46.116Z,7.20
2023-04-18T18:43:15.684Z,6.60
2023-04-18T18:45:43.911Z,7.10
2023-04-18T18:48:12.421Z,5.87
2023-04-18T18:50:41.920Z,7.10
2023-04-18T18:53:10.285Z,4.97
2023-04-18T18:55:38.826Z,11.03
2023-04-18T18:58:07.954Z,5.63
2023-04-18T19:00:37.519Z,5.93
2023-04-18T19:03:05.916Z,5.70
2023-04-18T19:05:34.234Z,14.30
2023-04-18T19:08:04.007Z,13.63
2023-04-18T19:10:32.227Z,6.70
2023-04-18T19:13:01.149Z,7.20
2023-04-18T19:15:29.367Z,6.27
2023-04-18T19:17:59.034Z,7.40
2023-04-18T19:20:29.103Z,10.20
2023-04-18T19:22:57.886Z,6.20
2023-04-18T19:25:26.011Z,6.23
2023-04-18T19:27:54.227Z,8.83
2023-04-18T19:30:22.481Z,5.33
2023-04-18T19:32:50.738Z,8.03
2023-04-18T19:35:20.302Z,5.40
2023-04-18T19:37:48.545Z,8.63
2023-04-18T19:40:16.870Z,9.60
2023-04-18T19:42:46.093Z,9.10
2023-04-18T19:45:15.175Z,7.77
2023-04-18T19:47:44.246Z,9.07
2023-04-18T19:50:12.595Z,6.00
2023-04-18T19:52:42.168Z,5.03
2023-04-18T19:55:11.315Z,6.63
2023-04-18T19:57:41.245Z,6.20
2023-04-18T20:00:11.281Z,7.77
2023-04-18T20:02:43.826Z,7.50
2023-04-18T20:05:12.919Z,11.90
2023-04-18T20:07:42.652Z,9.80
2023-04-18T20:10:11.685Z,9.10
2023-04-18T20:12:39.976Z,8.00
2023-04-18T20:15:09.375Z,6.70
2023-04-18T20:17:37.567Z,6.30
2023-04-18T20:20:09.234Z,9.07
2023-04-18T20:22:40.119Z,6.70
2023-04-18T20:25:10.034Z,10.87
2023-04-18T20:27:38.586Z,8.00
2023-04-18T20:30:08.515Z,8.77
2023-04-18T20:32:36.897Z,8.33
2023-04-18T20:35:05.904Z,11.33
2023-04-18T20:37:36.682Z,10.13
2023-04-18T20:40:10.647Z,7.77
2023-04-18T20:42:40.205Z,8.40
2023-04-18T20:45:11.232Z,7.10
2023-04-18T20:47:41.271Z,14.63
2023-04-18T20:50:10.498Z,11.53
2023-04-18T20:52:38.668Z,10.03
2023-04-18T20:55:07.467Z,9.50
2023-04-18T20:57:36.392Z,10.97
2023-04-18T21:00:07.295Z,7.13
2023-04-18T21:02:35.691Z,6.30
2023-04-18T21:05:03.971Z,7.77
2023-04-18T21:07:32.325Z,8.70
2023-04-18T21:10:00.473Z,8.17
2023-04-18T21:12:28.853Z,9.37
2023-04-18T21:14:57.037Z,10.27
2023-04-18T21:17:27.051Z,10.27
2023-04-18T21:19:56.263Z,10.63
2023-04-18T21:22:24.595Z,9.00
2023-04-18T21:24:52.774Z,11.67
2023-04-18T21:27:21.210Z,10.37
2023-04-18T21:29:49.358Z,14.17
2023-04-18T21:32:17.562Z,10.60
2023-04-18T21:34:47.466Z,8.77
2023-04-18T21:37:15.727Z,8.17
2023-04-18T21:39:44.332Z,9.50
2023-04-18T21:42:12.765Z,13.30
2023-04-18T21:44:40.918Z,17.30
2023-04-18T21:47:09.038Z,11.30
2023-04-18T21:49:37.179Z,9.93
2023-04-18T21:52:07.650Z,9.83
2023-04-18T21:54:35.866Z,14.40
2023-04-18T21:57:05.895Z,10.37
2023-04-18T21:59:34.087Z,15.07
2023-04-18T22:02:02.368Z,11.47
2023-04-18T22:04:30.661Z,12.13
2023-04-18T22:06:58.876Z,11.73
2023-04-18T22:09:29.420Z,10.83
2023-04-18T22:11:57.680Z,14.10
2023-04-18T22:14:26.029Z,12.23
2023-04-18T22:16:54.688Z,13.37
2023-04-18T22:19:24.756Z,10.77
2023-04-18T22:21:52.888Z,14.60
2023-04-18T22:24:21.936Z,11.20
2023-04-18T22:26:51.549Z,13.40
2023-04-18T22:29:20.003Z,12.60
2023-04-18T22:31:48.111Z,9.23
2023-04-18T22:34:16.620Z,11.60
2023-04-18T22:36:45.576Z,13.53
2023-04-18T22:39:14.189Z,16.27
2023-04-18T22:41:42.310Z,15.03
2023-04-18T22:44:11.779Z,9.43
2023-04-18T22:46:39.999Z,9.63
2023-04-18T22:49:08.205Z,9.57
2023-04-18T22:51:36.444Z,8.87
2023-04-18T22:54:04.772Z,9.77
2023-04-18T22:56:32.921Z,9.00
2023-04-18T22:59:01.164Z,9.07
2023-04-18T23:01:30.745Z,9.83
2023-04-18T23:03:59.184Z,7.93
2023-04-18T23:06:28.354Z,6.07
2023-04-18T23:08:56.497Z,11.20
2023-04-18T23:11:24.732Z,11.37
2023-04-18T23:13:53.258Z,5.70
2023-04-18T23:16:21.433Z,7.77
2023-04-18T23:18:50.945Z,7.37
2023-04-18T23:21:19.081Z,11.40
2023-04-18T23:23:47.223Z,5.57
2023-04-18T23:26:15.990Z,7.87
2023-04-18T23:28:44.492Z,7.53
2023-04-18T23:31:12.895Z,6.87
2023-04-18T23:33:41.110Z,5.60
2023-04-18T23:36:11.765Z,7.47
2023-04-18T23:38:40.041Z,4.47
2023-04-18T23:41:08.384Z,5.67
2023-04-18T23:43:36.708Z,10.07
2023-04-18T23:46:04.955Z,4.53
2023-04-18T23:48:33.084Z,5.57
2023-04-18T23:51:01.503Z,4.30
2023-04-18T23:53:31.017Z,6.17
2023-04-18T23:55:59.161Z,8.13
2023-04-18T23:58:27.299Z,7.03
